Fort Totten, North Dakota
Current Conditions -  °F | °C
As of 12:15 PM on Friday 19 Dec 2014 (Local Time) from KDVL Reporting Station
Overcast Overcast  
Wind Chill: 19°   Ceiling: 400
Heat Index: 27°   Visibility: 3mi
Dew Point: 21°   Wind: 7mph
Humidity: 80%   Direction: 170°S
Pressure: 29.94"   Gusts: NA
Location:  47.99°N, 98.99°W
Report Text: KDVL 191815Z AUTO 17006KT 3SM OVC004 M03/M06 A2994 RMK AO1
Loading
Personal Weather Stations






























Interactive Weather Map New forecast layout! Learn more

10-Day Weather Forecast

Advertisements
Track Severe Weather on mobile